createdAt,value
2022-10-23T00:03:28.867Z,12.82
2022-10-23T00:07:34.905Z,12.82
2022-10-23T00:12:54.150Z,12.82
2022-10-23T00:18:12.943Z,12.82
2022-10-23T00:23:31.757Z,12.82
2022-10-23T00:28:50.565Z,12.82
2022-10-23T00:34:10.140Z,12.82
2022-10-23T00:39:29.475Z,12.81
2022-10-23T00:44:49.260Z,12.81
2022-10-23T00:50:08.398Z,12.81
2022-10-23T00:55:27.932Z,12.81
2022-10-23T01:04:00.982Z,12.8
2022-10-23T01:06:06.279Z,12.8
2022-10-23T01:11:25.793Z,12.8
2022-10-23T01:16:44.717Z,12.81
2022-10-23T01:22:03.526Z,12.8
2022-10-23T01:27:22.618Z,12.81
2022-10-23T01:32:42.205Z,12.8
2022-10-23T01:38:01.065Z,12.8
2022-10-23T01:48:38.562Z,12.8
2022-10-23T01:53:57.474Z,12.8
2022-10-23T01:59:16.390Z,12.8
2022-10-23T02:04:35.711Z,12.79
2022-10-23T02:09:54.477Z,12.8
2022-10-23T02:15:13.666Z,12.8
2022-10-23T02:20:32.495Z,12.79
2022-10-23T02:25:52.147Z,12.8
2022-10-23T02:31:11.756Z,12.79
2022-10-23T02:36:30.840Z,12.78
2022-10-23T02:47:08.967Z,12.79
2022-10-23T02:52:27.792Z,12.79
2022-10-23T02:57:47.300Z,12.78
2022-10-23T03:03:06.533Z,12.78
2022-10-23T03:08:26.648Z,12.78
2022-10-23T03:13:44.710Z,12.78
2022-10-23T03:24:24.909Z,12.78
2022-10-23T03:29:43.751Z,12.77
2022-10-23T03:35:03.425Z,12.78
2022-10-23T03:40:22.232Z,12.77
2022-10-23T03:45:41.509Z,12.77
2022-10-23T03:51:00.304Z,12.77
2022-10-23T03:56:19.856Z,12.77
2022-10-23T04:01:39.470Z,12.76
2022-10-23T04:06:58.411Z,12.77
2022-10-23T04:12:17.397Z,12.77
2022-10-23T04:22:55.734Z,12.76
2022-10-23T04:28:14.925Z,12.76
2022-10-23T04:33:34.496Z,12.76
2022-10-23T04:38:53.308Z,12.76
2022-10-23T04:44:12.620Z,12.76
2022-10-23T04:49:31.805Z,12.75
2022-10-23T04:54:50.745Z,12.75
2022-10-23T05:05:29.917Z,12.74
2022-10-23T05:10:49.289Z,12.74
2022-10-23T05:16:08.175Z,12.75
2022-10-23T05:21:27.186Z,12.74
2022-10-23T05:26:46.203Z,12.74
2022-10-23T05:32:05.956Z,12.74
2022-10-23T05:37:25.704Z,12.74
2022-10-23T05:48:10.559Z,12.73
2022-10-23T05:53:24.436Z,12.72
2022-10-23T05:58:43.665Z,12.73
2022-10-23T06:04:03.519Z,12.73
2022-10-23T06:09:22.585Z,12.74
2022-10-23T06:14:42.383Z,12.76
2022-10-23T06:20:01.471Z,12.79
2022-10-23T06:30:40.432Z,12.82
2022-10-23T06:35:59.590Z,12.84
2022-10-23T06:41:18.922Z,12.88
2022-10-23T06:46:38.348Z,12.95
2022-10-23T06:51:57.178Z,13.06
2022-10-23T06:58:31.342Z,13.23
2022-10-23T07:02:37.225Z,13.38
2022-10-23T07:07:56.750Z,13.42
2022-10-23T07:13:15.545Z,13.48
2022-10-23T07:23:54.469Z,13.6
2022-10-23T07:29:13.599Z,13.63
2022-10-23T07:39:51.999Z,13.81
2022-10-23T07:45:11.514Z,13.98
2022-10-23T07:59:04.072Z,14.35
2022-10-23T08:01:09.904Z,14.23
2022-10-23T08:11:49.290Z,14.01
2022-10-23T08:17:08.846Z,14.12
2022-10-23T08:22:28.079Z,13.8
2022-10-23T08:31:01.140Z,13.7
2022-10-23T08:33:05.217Z,14.14
2022-10-23T08:40:03.818Z,13.96
2022-10-23T08:54:22.544Z,14.44
2022-10-23T08:59:41.524Z,14.38
2022-10-23T09:05:00.525Z,14.39
2022-10-23T09:10:19.939Z,14.44
2022-10-23T09:24:12.008Z,14.4
2022-10-23T09:28:28.514Z,14.45
2022-10-23T09:45:29.307Z,14.4
2022-10-23T09:49:45.826Z,14.38
2022-10-23T09:52:53.755Z,14.4
2022-10-23T09:58:13.356Z,14.38
2022-10-23T10:03:32.297Z,14.45
2022-10-23T10:08:49.954Z,14.4
2022-10-23T10:14:08.677Z,14.4
2022-10-23T10:24:59.570Z,14.4
2022-10-23T10:30:08.226Z,14.4
2022-10-23T10:35:27.295Z,14.39
2022-10-23T10:40:46.352Z,14.4
2022-10-23T10:49:31.426Z,14.4
2022-10-23T10:53:35.898Z,14.43
2022-10-23T10:56:43.268Z,14.42
2022-10-23T11:02:01.278Z,14.39
2022-10-23T11:07:20.378Z,14.39
2022-10-23T11:12:39.166Z,14.39
2022-10-23T11:17:57.899Z,14.43
2022-10-23T11:23:17.284Z,14.39
2022-10-23T11:28:35.961Z,14.39
2022-10-23T11:33:54.857Z,14.4
2022-10-23T11:39:23.406Z,14.39
2022-10-23T11:44:34.194Z,14.39
2022-10-23T11:55:11.772Z,14.39
2022-10-23T12:00:32.113Z,14.41
2022-10-23T12:07:06.257Z,14.39
2022-10-23T12:11:11.940Z,14.39
2022-10-23T12:16:29.030Z,14.4
2022-10-23T12:21:48.548Z,14.4
2022-10-23T12:27:07.909Z,14.39
2022-10-23T12:32:25.618Z,14.39
2022-10-23T12:37:44.465Z,14.39
2022-10-23T12:43:04.004Z,14.39
2022-10-23T12:53:42.324Z,14.39
2022-10-23T12:59:01.474Z,14.39
2022-10-23T13:04:21.000Z,14.39
2022-10-23T13:09:40.426Z,14.4
2022-10-23T13:15:00.094Z,14.39
2022-10-23T13:20:19.511Z,14.4
2022-10-23T13:25:38.894Z,14.4
2022-10-23T13:30:57.766Z,14.4
2022-10-23T13:36:17.072Z,14.4
2022-10-23T13:41:36.541Z,14.4
2022-10-23T13:46:55.985Z,14.4
2022-10-23T13:52:14.032Z,14.39
2022-10-23T13:57:32.661Z,14.39
2022-10-23T14:02:52.042Z,14.4
2022-10-23T14:08:12.014Z,14.39
2022-10-23T14:13:55.897Z,14.4
2022-10-23T14:24:34.653Z,14.39
2022-10-23T14:29:53.384Z,14.4
2022-10-23T14:35:21.908Z,14.39
2022-10-23T14:40:32.467Z,14.39
2022-10-23T14:45:52.405Z,14.4
2022-10-23T14:51:11.377Z,14.39
2022-10-23T14:56:29.456Z,14.38
2022-10-23T15:07:07.928Z,14.38
2022-10-23T15:12:27.281Z,13.86
2022-10-23T15:17:46.753Z,14.11
2022-10-23T15:23:05.822Z,13.57
2022-10-23T15:28:25.343Z,13.42
2022-10-23T15:33:44.221Z,13.28
2022-10-23T15:39:03.632Z,13.16
2022-10-23T15:44:22.818Z,13.05
2022-10-23T15:49:42.534Z,12.97
2022-10-23T15:55:01.815Z,12.92
2022-10-23T16:00:21.683Z,12.9
2022-10-23T16:05:39.972Z,12.9
2022-10-23T16:10:59.517Z,12.89
2022-10-23T16:16:18.780Z,12.89
2022-10-23T16:21:38.202Z,12.9
2022-10-23T16:26:57.869Z,12.9
2022-10-23T16:32:17.366Z,12.9
2022-10-23T16:37:36.179Z,12.9
2022-10-23T16:42:55.226Z,12.9
2022-10-23T16:48:14.569Z,12.9
2022-10-23T16:53:33.759Z,12.89
2022-10-23T16:58:52.831Z,12.9
2022-10-23T17:09:31.713Z,12.9
2022-10-23T17:14:51.124Z,12.9
2022-10-23T17:20:10.471Z,12.9
2022-10-23T17:25:29.696Z,12.9
2022-10-23T17:30:49.343Z,12.9
2022-10-23T17:36:08.577Z,12.9
2022-10-23T17:41:27.579Z,12.9
2022-10-23T17:46:47.960Z,12.9
2022-10-23T17:52:06.716Z,12.9
2022-10-23T17:57:25.400Z,12.9
2022-10-23T18:02:45.095Z,12.9
2022-10-23T18:08:04.634Z,12.9
2022-10-23T18:13:24.243Z,12.9
2022-10-23T18:18:43.089Z,12.9
2022-10-23T18:24:01.423Z,12.89
2022-10-23T18:29:21.238Z,12.89
2022-10-23T18:34:40.162Z,12.9
2022-10-23T18:39:59.412Z,12.89
2022-10-23T18:45:18.513Z,12.9
2022-10-23T18:50:37.775Z,12.89
2022-10-23T18:55:56.629Z,12.89
2022-10-23T19:01:15.847Z,12.89
2022-10-23T19:06:35.132Z,12.89
2022-10-23T19:11:54.003Z,12.89
2022-10-23T19:22:33.779Z,12.89
2022-10-23T19:27:52.648Z,12.88
2022-10-23T19:34:26.875Z,12.89
2022-10-23T19:38:43.337Z,12.88
2022-10-23T19:49:09.793Z,12.89
2022-10-23T19:54:27.018Z,12.88
2022-10-23T19:59:46.967Z,12.88
2022-10-23T20:06:21.160Z,12.88
2022-10-23T20:10:26.964Z,12.88
2022-10-23T20:15:43.733Z,12.88
2022-10-23T20:21:02.547Z,12.88
2022-10-23T20:26:22.220Z,12.88
2022-10-23T20:31:41.071Z,12.88
2022-10-23T20:37:01.082Z,12.88
2022-10-23T20:42:20.536Z,12.88
2022-10-23T20:47:38.907Z,12.87
2022-10-23T20:52:58.375Z,12.87
2022-10-23T20:58:18.041Z,12.87
2022-10-23T21:03:46.061Z,12.87
2022-10-23T21:09:03.540Z,12.88
2022-10-23T21:14:14.614Z,12.87
2022-10-23T21:19:43.306Z,12.87
2022-10-23T21:24:53.857Z,12.87
2022-10-23T21:30:13.114Z,12.87
2022-10-23T21:35:32.798Z,12.86
2022-10-23T21:40:50.885Z,12.86
2022-10-23T21:46:19.314Z,12.86
2022-10-23T21:51:30.473Z,12.86
2022-10-23T21:56:50.086Z,12.86
2022-10-23T22:02:08.838Z,12.86
2022-10-23T22:12:46.508Z,12.86
2022-10-23T22:18:06.799Z,12.86
2022-10-23T22:23:25.216Z,12.86
2022-10-23T22:28:44.726Z,12.85
2022-10-23T22:35:18.890Z,12.85
2022-10-23T22:39:23.098Z,12.85
2022-10-23T22:44:42.384Z,12.85
2022-10-23T22:50:01.346Z,12.85
2022-10-23T22:55:20.455Z,12.84
2022-10-23T23:00:41.417Z,12.84
2022-10-23T23:07:15.077Z,12.84
2022-10-23T23:16:39.387Z,12.84
2022-10-23T23:21:57.369Z,12.84
2022-10-23T23:27:16.459Z,12.84
2022-10-23T23:32:35.526Z,12.84
2022-10-23T23:37:54.164Z,12.84
2022-10-23T23:43:13.739Z,12.84
2022-10-23T23:48:32.607Z,12.83
2022-10-23T23:53:52.581Z,12.84
2022-10-23T23:59:12.122Z,12.84
